Time;durP1;ratioP1;P1;durP2;ratioP2;P2;SDS_P1;SDS_P2;PMS_P1;PMS_P2;Temp;Humidity;BMP_temperature;BMP_pressure;BME280_temperature;BME280_humidity;BME280_pressure;Samples;Min_cycle;Max_cycle;Signal;HPM_P1;HPM_P2
2023/05/18 00:02:04;;;;;;;6.95;2.03;;;7.30;71.10;;;;;;5043783;28;20036;-72
2023/05/18 00:04:33;;;;;;;6.75;1.67;;;7.30;70.80;;;;;;5049219;28;20361;-72
2023/05/18 00:07:03;;;;;;;13.38;2.45;;;7.30;71.80;;;;;;5051684;28;20032;-72
2023/05/18 00:09:30;;;;;;;7.22;1.80;;;7.20;72.20;;;;;;5046470;28;20024;-72
2023/05/18 00:11:58;;;;;;;10.35;1.67;;;7.10;72.90;;;;;;5040512;28;20033;-72
2023/05/18 00:14:25;;;;;;;5.72;1.63;;;7.00;73.10;;;;;;5051019;28;20036;-72
2023/05/18 00:16:53;;;;;;;6.78;1.80;;;7.00;73.90;;;;;;5042972;28;20031;-72
2023/05/18 00:19:20;;;;;;;12.23;2.03;;;6.90;74.50;;;;;;5044574;28;20021;-72
2023/05/18 00:21:46;;;;;;;5.93;2.05;;;6.90;74.50;;;;;;5041583;28;20029;-72
2023/05/18 00:24:13;;;;;;;11.63;2.30;;;6.90;74.70;;;;;;5056273;28;20036;-73
2023/05/18 00:26:40;;;;;;;8.90;2.47;;;6.90;74.40;;;;;;5046183;28;20106;-72
2023/05/18 00:29:06;;;;;;;12.23;1.88;;;6.80;75.60;;;;;;5048734;28;20454;-72
2023/05/18 00:31:37;;;;;;;5.15;1.90;;;6.80;75.40;;;;;;5044091;28;20377;-72
2023/05/18 00:34:03;;;;;;;7.53;1.88;;;6.80;76.00;;;;;;5038719;28;20052;-72
2023/05/18 00:36:30;;;;;;;8.25;2.10;;;6.90;75.20;;;;;;5048867;28;20102;-72
2023/05/18 00:38:56;;;;;;;9.25;1.75;;;6.90;74.20;;;;;;5043388;28;20475;-72
2023/05/18 00:41:22;;;;;;;7.28;1.80;;;7.00;75.40;;;;;;5039956;28;20032;-72
2023/05/18 00:43:47;;;;;;;10.13;2.20;;;7.00;75.30;;;;;;5048207;28;20024;-72
2023/05/18 00:46:13;;;;;;;7.00;1.90;;;7.00;74.50;;;;;;5051496;28;20112;-72
2023/05/18 00:48:38;;;;;;;12.68;2.00;;;7.00;73.00;;;;;;5044062;28;20028;-72
2023/05/18 00:51:04;;;;;;;7.78;2.03;;;7.00;73.00;;;;;;5044857;28;20494;-72
2023/05/18 00:53:31;;;;;;;6.47;2.10;;;7.10;73.50;;;;;;5045413;28;20393;-72
2023/05/18 00:55:57;;;;;;;10.00;1.85;;;7.10;74.10;;;;;;5047981;28;20082;-72
2023/05/18 00:58:24;;;;;;;8.43;2.20;;;7.10;74.20;;;;;;5037771;28;20110;-72
2023/05/18 01:00:50;;;;;;;10.63;2.30;;;7.20;74.50;;;;;;5046382;28;20021;-72
2023/05/18 01:03:18;;;;;;;6.82;2.22;;;7.10;74.00;;;;;;5048528;28;20033;-72
2023/05/18 01:05:44;;;;;;;9.07;1.95;;;7.20;73.80;;;;;;5040412;28;20340;-72
2023/05/18 01:08:10;;;;;;;9.85;2.42;;;7.10;73.90;;;;;;5048337;28;20039;-72
2023/05/18 01:10:38;;;;;;;11.23;2.10;;;7.20;74.10;;;;;;5049514;28;20036;-72
2023/05/18 01:13:14;;;;;;;9.60;2.03;;;7.20;74.70;;;;;;5045379;28;20417;-72
2023/05/18 01:15:40;;;;;;;9.68;2.38;;;7.10;74.10;;;;;;5049859;28;20036;-72
2023/05/18 01:18:22;;;;;;;13.18;2.10;;;7.20;76.00;;;;;;5048132;28;20087;-72
2023/05/18 01:20:56;;;;;;;7.90;2.00;;;7.10;75.80;;;;;;5044788;28;20021;-72
2023/05/18 01:23:28;;;;;;;8.65;2.13;;;7.10;76.20;;;;;;5050977;28;20074;-72
2023/05/18 01:25:53;;;;;;;6.32;1.95;;;7.10;75.60;;;;;;5051814;28;20469;-72
2023/05/18 01:28:32;;;;;;;4.22;1.63;;;7.10;75.90;;;;;;5049547;28;20035;-72
2023/05/18 01:30:59;;;;;;;10.35;2.00;;;7.00;75.50;;;;;;5047707;28;20108;-72
2023/05/18 01:33:24;;;;;;;6.75;1.80;;;7.00;75.00;;;;;;5046683;28;20116;-72
2023/05/18 01:35:50;;;;;;;15.40;2.22;;;7.10;74.80;;;;;;5040776;28;20112;-72
2023/05/18 01:38:22;;;;;;;10.65;1.92;;;7.10;73.70;;;;;;5051284;28;20456;-72
2023/05/18 01:41:16;;;;;;;15.00;2.00;;;7.10;75.00;;;;;;5050581;28;20415;-72
2023/05/18 01:43:50;;;;;;;10.63;1.75;;;7.10;74.20;;;;;;5048246;28;20029;-72
2023/05/18 01:46:51;;;;;;;8.60;2.10;;;7.10;74.70;;;;;;5058707;28;20147;-72
2023/05/18 01:49:31;;;;;;;8.32;2.38;;;7.10;75.50;;;;;;5048675;28;20459;-72
2023/05/18 01:52:05;;;;;;;10.35;1.95;;;7.10;74.60;;;;;;5046752;28;20045;-72
2023/05/18 01:54:32;;;;;;;5.88;1.63;;;7.10;74.90;;;;;;5047621;28;20032;-72
2023/05/18 01:56:58;;;;;;;9.98;1.95;;;7.10;74.70;;;;;;5048433;28;20029;-73
2023/05/18 01:59:24;;;;;;;9.43;2.25;;;7.10;74.70;;;;;;5053280;28;20035;-72
2023/05/18 02:01:50;;;;;;;8.90;2.10;;;7.10;75.50;;;;;;5041484;28;20037;-72
2023/05/18 02:04:15;;;;;;;8.38;1.90;;;7.10;75.60;;;;;;5052649;28;20473;-72
2023/05/18 02:06:41;;;;;;;8.77;1.80;;;7.10;75.70;;;;;;5044584;28;20046;-72
2023/05/18 02:09:07;;;;;;;10.85;2.22;;;7.10;75.60;;;;;;5051037;28;20418;-72
2023/05/18 02:11:33;;;;;;;7.80;2.10;;;7.10;74.80;;;;;;5051384;28;20413;-72
2023/05/18 02:13:59;;;;;;;10.27;1.90;;;7.10;75.50;;;;;;5048015;28;20033;-72
2023/05/18 02:16:25;;;;;;;7.35;1.98;;;7.10;74.70;;;;;;5048196;28;20024;-72
2023/05/18 02:18:51;;;;;;;10.05;2.15;;;7.20;74.20;;;;;;5048683;28;20029;-72
2023/05/18 02:21:17;;;;;;;8.20;2.03;;;7.10;74.20;;;;;;5048126;28;20450;-72
2023/05/18 02:23:43;;;;;;;8.48;1.98;;;7.10;74.80;;;;;;5048054;28;20029;-72
2023/05/18 02:26:09;;;;;;;7.10;2.10;;;7.00;74.90;;;;;;5045991;28;20211;-72
2023/05/18 02:28:34;;;;;;;7.47;2.20;;;7.00;75.60;;;;;;5049503;28;20029;-72
2023/05/18 02:31:08;;;;;;;9.98;2.55;;;7.00;75.10;;;;;;5047068;28;20025;-72
2023/05/18 02:33:38;;;;;;;7.45;2.55;;;7.10;72.90;;;;;;5044477;28;20033;-72
2023/05/18 02:36:11;;;;;;;13.05;3.10;;;7.10;72.40;;;;;;5044882;28;20041;-72
2023/05/18 02:38:38;;;;;;;9.85;2.25;;;7.10;73.00;;;;;;5043319;28;20544;-72
2023/05/18 02:41:04;;;;;;;9.68;2.55;;;7.10;73.60;;;;;;5048270;28;20021;-73
2023/05/18 02:43:30;;;;;;;11.00;2.75;;;7.10;73.90;;;;;;5044541;28;20386;-72
2023/05/18 02:45:56;;;;;;;10.80;2.45;;;7.10;74.30;;;;;;5048530;28;20025;-72
2023/05/18 02:48:21;;;;;;;11.38;2.17;;;7.10;74.40;;;;;;5047186;28;20163;-72
2023/05/18 02:50:50;;;;;;;12.23;2.72;;;7.10;74.40;;;;;;5044465;28;20045;-72
2023/05/18 02:53:15;;;;;;;9.13;2.67;;;7.10;74.90;;;;;;5051477;28;20028;-72
2023/05/18 02:55:42;;;;;;;7.97;2.78;;;7.10;75.50;;;;;;5049728;28;20040;-73
2023/05/18 02:58:08;;;;;;;7.07;2.55;;;7.10;76.30;;;;;;5047591;28;20028;-72
2023/05/18 03:00:34;;;;;;;11.85;2.38;;;7.10;75.50;;;;;;5045992;28;20445;-72
2023/05/18 03:02:59;;;;;;;10.90;2.33;;;7.10;74.80;;;;;;5046985;28;20085;-72
2023/05/18 03:05:25;;;;;;;12.48;2.35;;;7.10;74.60;;;;;;5043931;28;20074;-72
2023/05/18 03:07:51;;;;;;;6.90;1.80;;;7.10;74.60;;;;;;5046537;28;20036;-72
2023/05/18 03:10:20;;;;;;;10.85;2.15;;;7.20;75.70;;;;;;5048394;28;20043;-72
2023/05/18 03:12:47;;;;;;;8.32;2.28;;;7.10;75.80;;;;;;5047684;28;20079;-72
2023/05/18 03:15:14;;;;;;;7.45;2.15;;;7.10;75.40;;;;;;5041888;28;20461;-73
2023/05/18 03:17:41;;;;;;;9.68;1.90;;;7.10;74.60;;;;;;5053938;28;20025;-73
2023/05/18 03:20:07;;;;;;;9.20;2.15;;;7.00;75.50;;;;;;5042118;28;20017;-73
2023/05/18 03:22:32;;;;;;;7.03;1.85;;;7.10;75.10;;;;;;5044548;28;20033;-72
2023/05/18 03:24:58;;;;;;;11.65;2.00;;;7.10;75.40;;;;;;5056799;28;20129;-72
2023/05/18 03:27:25;;;;;;;11.48;2.10;;;7.10;76.10;;;;;;5044661;28;20061;-72
2023/05/18 03:29:55;;;;;;;9.60;1.95;;;7.10;75.60;;;;;;5051577;28;20033;-72
2023/05/18 03:32:20;;;;;;;9.05;2.38;;;7.10;76.00;;;;;;5045564;28;20346;-72
2023/05/18 03:34:49;;;;;;;9.55;1.90;;;7.10;75.70;;;;;;5042895;28;20048;-72
2023/05/18 03:37:15;;;;;;;9.95;2.17;;;7.10;73.10;;;;;;5039803;28;20469;-72
2023/05/18 03:39:42;;;;;;;10.48;2.20;;;7.10;73.60;;;;;;5045263;28;20056;-72
2023/05/18 03:42:08;;;;;;;9.68;2.00;;;7.20;75.30;;;;;;5045125;28;20037;-73
2023/05/18 03:44:34;;;;;;;11.48;2.08;;;7.20;75.60;;;;;;5048384;28;20060;-73
2023/05/18 03:46:59;;;;;;;7.20;2.38;;;7.30;74.80;;;;;;5044749;28;20151;-72
2023/05/18 03:49:25;;;;;;;11.65;2.22;;;7.20;74.70;;;;;;5045526;28;20025;-72
2023/05/18 03:51:53;;;;;;;15.15;2.15;;;7.20;74.10;;;;;;5052161;28;20058;-73
2023/05/18 03:54:18;;;;;;;11.77;2.20;;;7.30;75.10;;;;;;5047969;28;20115;-73
2023/05/18 03:56:45;;;;;;;9.73;2.20;;;7.30;74.60;;;;;;5043715;28;20179;-72
2023/05/18 03:59:11;;;;;;;8.32;2.10;;;7.30;73.10;;;;;;5044846;28;20108;-72
2023/05/18 04:01:36;;;;;;;8.77;1.90;;;7.30;72.50;;;;;;5051561;28;20154;-72
2023/05/18 04:04:02;;;;;;;12.80;2.25;;;7.30;72.20;;;;;;5056874;28;20017;-72
2023/05/18 04:06:28;;;;;;;7.75;1.50;;;7.30;72.30;;;;;;5040896;28;20028;-73
2023/05/18 04:08:54;;;;;;;11.10;2.05;;;7.40;73.60;;;;;;5049928;28;20036;-73
2023/05/18 04:11:21;;;;;;;11.27;2.00;;;7.50;74.50;;;;;;5046780;28;20541;-72
2023/05/18 04:13:46;;;;;;;14.18;2.40;;;7.50;75.10;;;;;;5048500;28;20025;-73
2023/05/18 04:16:12;;;;;;;9.73;2.00;;;7.50;74.70;;;;;;5041848;28;20031;-72
2023/05/18 04:18:41;;;;;;;13.20;1.92;;;7.60;75.30;;;;;;5048053;28;20414;-73
2023/05/18 04:21:08;;;;;;;12.23;2.30;;;7.60;74.80;;;;;;5041336;28;20060;-73
2023/05/18 04:23:37;;;;;;;8.32;2.75;;;7.60;75.00;;;;;;5049462;28;20027;-72
2023/05/18 04:26:04;;;;;;;10.10;2.25;;;7.70;74.20;;;;;;5045390;28;20071;-73
2023/05/18 04:28:30;;;;;;;5.13;1.95;;;7.60;73.50;;;;;;5049667;28;20021;-71
2023/05/18 04:30:56;;;;;;;11.38;2.17;;;7.70;72.80;;;;;;5049947;28;20039;-73
2023/05/18 04:33:21;;;;;;;8.95;1.92;;;7.80;73.50;;;;;;5037214;28;20029;-72
2023/05/18 04:35:47;;;;;;;6.68;2.15;;;7.80;73.50;;;;;;5044478;28;20492;-72
2023/05/18 04:38:15;;;;;;;9.23;2.05;;;7.60;71.50;;;;;;5041496;28;20025;-73
2023/05/18 04:40:41;;;;;;;8.00;2.03;;;7.60;70.60;;;;;;5050354;28;20029;-73
2023/05/18 04:43:07;;;;;;;7.07;2.17;;;7.70;72.10;;;;;;5042946;28;20021;-72
2023/05/18 04:45:32;;;;;;;9.02;2.22;;;7.80;71.90;;;;;;5049519;28;20070;-73
2023/05/18 04:47:58;;;;;;;10.38;2.58;;;7.90;70.60;;;;;;5048065;28;20276;-72
2023/05/18 04:50:23;;;;;;;11.30;2.47;;;7.90;72.50;;;;;;5045275;28;20043;-73
2023/05/18 04:52:50;;;;;;;9.60;2.00;;;8.00;72.80;;;;;;5045101;28;20519;-72
2023/05/18 04:55:27;;;;;;;8.27;2.05;;;7.90;70.20;;;;;;5048500;28;20075;-73
2023/05/18 04:57:55;;;;;;;10.40;2.33;;;8.00;70.60;;;;;;5044303;28;20057;-72
2023/05/18 05:00:22;;;;;;;9.73;2.53;;;8.00;70.70;;;;;;5035909;28;20466;-73
2023/05/18 05:02:48;;;;;;;6.45;2.00;;;8.00;71.20;;;;;;5053435;28;20032;-73
2023/05/18 05:05:13;;;;;;;8.55;2.40;;;8.00;70.10;;;;;;5043579;28;20044;-73
2023/05/18 05:07:39;;;;;;;8.00;2.17;;;8.10;72.10;;;;;;5046198;28;20445;-73
2023/05/18 05:10:05;;;;;;;7.93;2.20;;;8.20;71.50;;;;;;5048843;28;20061;-78
2023/05/18 05:12:31;;;;;;;8.20;1.73;;;8.20;70.40;;;;;;5045641;28;20025;-76
2023/05/18 05:14:56;;;;;;;8.73;1.70;;;8.10;69.80;;;;;;5049391;28;20075;-78
2023/05/18 05:17:23;;;;;;;9.55;2.10;;;8.20;69.70;;;;;;5037809;28;20036;-78
2023/05/18 05:19:48;;;;;;;9.45;1.85;;;8.20;70.10;;;;;;5047849;28;20017;-79
2023/05/18 05:22:14;;;;;;;11.90;2.42;;;8.30;69.10;;;;;;5041617;28;20036;-75
2023/05/18 05:24:40;;;;;;;10.73;2.30;;;8.10;67.40;;;;;;5042998;28;20033;-75
2023/05/18 05:27:05;;;;;;;9.98;2.00;;;8.10;67.00;;;;;;5044725;28;20496;-76
2023/05/18 05:29:31;;;;;;;7.93;2.00;;;8.20;68.10;;;;;;5048054;28;20047;-75
2023/05/18 05:31:56;;;;;;;7.13;2.30;;;8.40;69.10;;;;;;5043385;28;20037;-76
2023/05/18 05:34:22;;;;;;;8.05;2.08;;;8.30;67.90;;;;;;5038840;28;20040;-75
2023/05/18 05:36:47;;;;;;;14.55;2.10;;;8.30;65.70;;;;;;5045839;28;20079;-76
2023/05/18 05:39:13;;;;;;;12.30;2.30;;;8.40;66.60;;;;;;5039462;28;20039;-75
2023/05/18 05:41:38;;;;;;;10.18;1.83;;;8.50;67.40;;;;;;5045069;28;20142;-75
2023/05/18 05:44:07;;;;;;;9.63;2.05;;;8.60;67.20;;;;;;5049715;28;20468;-75
2023/05/18 05:46:32;;;;;;;12.63;2.78;;;8.50;66.30;;;;;;5047390;28;20453;-75
2023/05/18 05:48:58;;;;;;;12.50;1.98;;;8.80;67.60;;;;;;5044621;28;20040;-75
2023/05/18 05:51:23;;;;;;;12.10;2.33;;;8.70;65.70;;;;;;5040526;28;20482;-75
2023/05/18 05:53:49;;;;;;;6.03;1.98;;;9.00;67.40;;;;;;5050030;28;20551;-75
2023/05/18 05:56:14;;;;;;;9.43;1.60;;;8.80;65.80;;;;;;5044964;28;20029;-76
2023/05/18 05:58:41;;;;;;;7.72;1.92;;;9.00;66.90;;;;;;5042357;28;20095;-76
2023/05/18 06:01:07;;;;;;;12.90;1.98;;;8.90;65.60;;;;;;5054246;28;20103;-75
2023/05/18 06:03:33;;;;;;;9.30;2.03;;;8.90;66.40;;;;;;5046499;28;20028;-75
2023/05/18 06:05:58;;;;;;;9.30;1.83;;;9.20;67.10;;;;;;5042919;28;20044;-75
2023/05/18 06:08:24;;;;;;;8.63;2.17;;;9.10;65.30;;;;;;5048190;28;20384;-75
2023/05/18 06:10:50;;;;;;;7.93;1.75;;;9.30;65.80;;;;;;5047879;28;20044;-75
2023/05/18 06:13:15;;;;;;;8.27;2.13;;;9.40;66.40;;;;;;5039697;28;20052;-75
2023/05/18 06:15:41;;;;;;;8.05;2.00;;;9.40;64.90;;;;;;5049306;28;20047;-76
2023/05/18 06:18:07;;;;;;;9.48;1.65;;;9.60;66.20;;;;;;5055327;28;20039;-75
2023/05/18 06:20:32;;;;;;;9.45;1.83;;;9.60;63.90;;;;;;5046702;28;20112;-75
2023/05/18 06:22:58;;;;;;;9.00;2.30;;;9.50;64.80;;;;;;5043790;28;20023;-75
2023/05/18 06:25:23;;;;;;;13.65;2.35;;;9.70;64.30;;;;;;5049245;28;20120;-75
2023/05/18 06:27:49;;;;;;;6.65;1.65;;;9.80;65.40;;;;;;5045627;28;20033;-75
2023/05/18 06:30:15;;;;;;;7.88;1.92;;;9.80;62.60;;;;;;5047006;28;20041;-76
2023/05/18 06:32:41;;;;;;;9.48;1.90;;;9.60;63.50;;;;;;5046815;28;20531;-75
2023/05/18 06:35:07;;;;;;;6.28;1.95;;;9.40;63.20;;;;;;5049118;28;20037;-75
2023/05/18 06:37:32;;;;;;;7.60;2.15;;;9.50;64.00;;;;;;5046153;28;20060;-76
2023/05/18 06:39:58;;;;;;;9.32;2.05;;;9.60;64.60;;;;;;5054638;28;20032;-73
2023/05/18 06:42:23;;;;;;;7.32;1.83;;;9.90;66.00;;;;;;5046613;28;20489;-74
2023/05/18 06:44:52;;;;;;;7.57;2.22;;;9.90;63.70;;;;;;5050597;28;20041;-73
2023/05/18 06:47:18;;;;;;;10.05;2.15;;;9.90;64.60;;;;;;5044752;28;20104;-73
2023/05/18 06:49:43;;;;;;;8.05;2.03;;;10.10;64.50;;;;;;5047015;28;20104;-73
2023/05/18 06:52:09;;;;;;;7.45;1.92;;;9.90;62.80;;;;;;5050867;28;20037;-73
2023/05/18 06:54:36;;;;;;;5.50;1.88;;;9.90;64.70;;;;;;5044072;28;20037;-73
2023/05/18 06:57:01;;;;;;;11.55;2.25;;;10.10;64.50;;;;;;5043915;28;20031;-74
2023/05/18 06:59:26;;;;;;;8.18;1.95;;;10.30;65.00;;;;;;5053296;28;20104;-73
2023/05/18 07:01:52;;;;;;;5.65;1.40;;;10.00;60.90;;;;;;5048007;28;20052;-73
2023/05/18 07:04:20;;;;;;;9.50;1.92;;;10.20;64.50;;;;;;5047926;28;20368;-74
2023/05/18 07:06:46;;;;;;;11.13;1.88;;;10.30;64.00;;;;;;5049619;28;20025;-73
2023/05/18 07:09:11;;;;;;;9.25;2.33;;;10.20;63.00;;;;;;5039309;28;20021;-73
2023/05/18 07:11:39;;;;;;;8.07;2.28;;;9.90;62.40;;;;;;5042042;28;20183;-73
2023/05/18 07:14:07;;;;;;;10.85;1.92;;;9.90;62.50;;;;;;5063901;28;20066;-74
2023/05/18 07:16:34;;;;;;;7.95;1.60;;;10.00;62.70;;;;;;5045388;28;20079;-74
2023/05/18 07:18:59;;;;;;;8.52;2.15;;;10.20;61.80;;;;;;5048483;28;20021;-74
2023/05/18 07:21:25;;;;;;;6.03;2.45;;;10.10;60.50;;;;;;5039569;28;20377;-74
2023/05/18 07:23:51;;;;;;;8.02;2.13;;;10.20;61.70;;;;;;5042265;28;20055;-74
2023/05/18 07:26:17;;;;;;;8.98;2.28;;;10.50;63.20;;;;;;5039750;28;20075;-74
2023/05/18 07:28:42;;;;;;;12.25;1.98;;;10.60;62.50;;;;;;5045075;28;20035;-73
2023/05/18 07:31:08;;;;;;;10.23;1.90;;;10.90;61.10;;;;;;5044573;28;20035;-74
2023/05/18 07:33:33;;;;;;;8.70;2.00;;;10.90;59.70;;;;;;5041480;28;20075;-74
2023/05/18 07:35:59;;;;;;;10.10;2.33;;;11.00;59.40;;;;;;5043229;28;20065;-74
2023/05/18 07:38:25;;;;;;;12.05;2.53;;;10.60;59.90;;;;;;5043012;28;20082;-74
2023/05/18 07:40:50;;;;;;;6.00;2.00;;;10.60;60.50;;;;;;5041500;28;20040;-73
2023/05/18 07:43:16;;;;;;;8.38;1.80;;;10.80;61.60;;;;;;5050535;28;20029;-73
2023/05/18 07:45:41;;;;;;;7.30;1.83;;;11.10;60.90;;;;;;5040611;28;20036;-73
2023/05/18 07:48:06;;;;;;;8.05;2.03;;;11.50;61.30;;;;;;5047831;28;20037;-74
2023/05/18 07:50:33;;;;;;;8.70;2.08;;;11.70;59.80;;;;;;5041994;28;20528;-73
2023/05/18 07:52:59;;;;;;;5.82;1.95;;;11.80;59.90;;;;;;5041256;28;20021;-74
2023/05/18 07:55:24;;;;;;;11.48;2.05;;;11.80;60.60;;;;;;5038298;28;20043;-74
2023/05/18 07:57:50;;;;;;;8.98;1.85;;;11.80;57.80;;;;;;5052095;28;20530;-74
2023/05/18 08:00:16;;;;;;;5.18;1.75;;;12.00;56.90;;;;;;5039478;28;20029;-74
2023/05/18 08:02:43;;;;;;;16.25;2.60;;;11.50;56.90;;;;;;5038876;28;20079;-74
2023/05/18 08:05:09;;;;;;;8.63;2.00;;;11.70;57.30;;;;;;5044124;28;20048;-73
2023/05/18 08:07:35;;;;;;;14.93;2.03;;;11.50;58.20;;;;;;5045118;28;20040;-73
2023/05/18 08:10:01;;;;;;;8.63;2.28;;;11.10;57.20;;;;;;5048156;28;20021;-74
2023/05/18 08:12:28;;;;;;;8.20;2.22;;;11.30;57.20;;;;;;5041154;28;20028;-73
2023/05/18 08:14:54;;;;;;;12.88;3.05;;;11.00;58.20;;;;;;5043698;28;20037;-74
2023/05/18 08:17:19;;;;;;;10.05;2.28;;;11.00;58.80;;;;;;5042392;28;20174;-73
2023/05/18 08:19:46;;;;;;;6.10;1.85;;;10.90;58.20;;;;;;5043018;28;20079;-73
2023/05/18 08:22:12;;;;;;;9.13;1.95;;;10.90;58.30;;;;;;5043086;28;20024;-74
2023/05/18 08:24:37;;;;;;;9.55;2.45;;;10.80;58.40;;;;;;5050571;28;20335;-73
2023/05/18 08:27:05;;;;;;;6.03;2.13;;;11.10;59.20;;;;;;5045799;28;20029;-74
2023/05/18 08:29:31;;;;;;;7.60;2.45;;;11.00;58.40;;;;;;5047607;28;20418;-74
2023/05/18 08:31:56;;;;;;;6.88;2.20;;;10.90;58.90;;;;;;5037754;28;20037;-74
2023/05/18 08:34:22;;;;;;;5.88;2.00;;;11.00;58.00;;;;;;5045305;28;20448;-73
2023/05/18 08:36:47;;;;;;;10.23;2.50;;;11.10;59.10;;;;;;5051136;28;20501;-74
2023/05/18 08:39:13;;;;;;;8.23;1.98;;;10.70;59.10;;;;;;5043510;28;20041;-72
2023/05/18 08:42:01;;;;;;;5.93;1.70;;;11.50;59.30;;;;;;5042658;28;20108;-76
2023/05/18 08:44:39;;;;;;;10.38;2.47;;;11.30;59.40;;;;;;5037977;28;20427;-74
2023/05/18 08:47:09;;;;;;;8.82;2.20;;;12.30;56.60;;;;;;5045062;28;20029;-74
2023/05/18 08:49:35;;;;;;;6.50;2.17;;;13.20;53.50;;;;;;5052525;28;20449;-74
2023/05/18 08:52:03;;;;;;;9.85;2.40;;;13.70;52.90;;;;;;5048954;28;20032;-74
2023/05/18 08:54:30;;;;;;;8.18;2.00;;;13.00;53.00;;;;;;5047608;28;20032;-74
2023/05/18 08:56:57;;;;;;;6.38;2.22;;;13.00;53.30;;;;;;5040790;28;20025;-74
2023/05/18 08:59:25;;;;;;;8.27;2.15;;;13.70;53.10;;;;;;5045903;28;20037;-75
2023/05/18 09:01:51;;;;;;;12.13;2.60;;;14.00;51.10;;;;;;5044393;28;20115;-74
2023/05/18 09:04:18;;;;;;;8.00;2.13;;;13.70;52.40;;;;;;5038237;28;20431;-75
2023/05/18 09:06:46;;;;;;;9.27;2.08;;;13.50;51.80;;;;;;5041363;28;20047;-75
2023/05/18 09:09:13;;;;;;;5.88;1.90;;;13.60;52.00;;;;;;5045909;28;20029;-75
2023/05/18 09:11:40;;;;;;;7.97;2.25;;;13.40;53.30;;;;;;5042401;28;20460;-75
2023/05/18 09:14:06;;;;;;;6.13;2.33;;;13.20;52.10;;;;;;5038637;28;20030;-75
2023/05/18 09:16:32;;;;;;;8.45;2.03;;;13.30;52.70;;;;;;5045519;28;20082;-75
2023/05/18 09:18:58;;;;;;;7.70;1.92;;;13.70;51.90;;;;;;5041766;28;20024;-74
2023/05/18 09:21:25;;;;;;;7.43;2.13;;;13.30;52.30;;;;;;5037274;28;20037;-74
2023/05/18 09:23:50;;;;;;;6.18;1.92;;;13.30;52.70;;;;;;5048361;28;20049;-75
2023/05/18 09:26:17;;;;;;;7.63;2.08;;;13.30;52.50;;;;;;5037198;28;20072;-69
2023/05/18 09:28:44;;;;;;;9.50;2.33;;;13.60;52.80;;;;;;5045626;28;20091;-70
2023/05/18 09:31:16;;;;;;;9.75;2.00;;;13.50;52.20;;;;;;5050379;28;20040;-70
2023/05/18 09:33:43;;;;;;;7.43;2.05;;;14.10;53.60;;;;;;5046844;28;20041;-70
2023/05/18 09:36:09;;;;;;;8.93;2.00;;;15.00;52.70;;;;;;5044062;28;20049;-71
2023/05/18 09:38:44;;;;;;;11.48;2.20;;;14.60;49.40;;;;;;5048592;28;20100;-69
2023/05/18 09:41:15;;;;;;;7.32;1.90;;;14.10;49.70;;;;;;5053043;28;20461;-69
2023/05/18 09:43:42;;;;;;;7.20;1.70;;;13.60;51.30;;;;;;5045128;28;20409;-71
2023/05/18 09:46:09;;;;;;;7.35;1.88;;;13.30;52.30;;;;;;5043456;28;20067;-68
2023/05/18 09:48:36;;;;;;;5.60;2.00;;;13.00;51.40;;;;;;5046351;28;20037;-70
2023/05/18 09:51:05;;;;;;;12.27;2.30;;;13.10;54.30;;;;;;5038380;28;20030;-69
2023/05/18 09:53:33;;;;;;;5.82;1.73;;;14.30;50.00;;;;;;5062775;28;20021;-70
2023/05/18 09:56:03;;;;;;;7.32;1.90;;;14.50;48.00;;;;;;5039437;28;20048;-71
2023/05/18 09:58:32;;;;;;;8.50;2.03;;;14.40;49.30;;;;;;5043075;28;20040;-71
2023/05/18 10:01:00;;;;;;;7.40;1.90;;;14.50;48.30;;;;;;5045271;28;20029;-73
2023/05/18 10:03:30;;;;;;;4.45;1.38;;;14.40;50.10;;;;;;5043797;28;20025;-70
2023/05/18 10:06:02;;;;;;;8.35;1.85;;;15.00;46.90;;;;;;5039822;28;20044;-71
2023/05/18 10:08:27;;;;;;;6.70;2.17;;;14.90;47.80;;;;;;5047811;28;20021;-69
2023/05/18 10:10:53;;;;;;;7.00;2.10;;;14.60;47.30;;;;;;5049269;28;21346;-71
2023/05/18 10:13:19;;;;;;;7.85;1.83;;;14.60;48.70;;;;;;5040870;28;20025;-71
2023/05/18 10:15:52;;;;;;;6.72;2.10;;;15.30;48.60;;;;;;5042424;28;20366;-71
2023/05/18 10:18:28;;;;;;;5.55;1.52;;;15.30;49.10;;;;;;5051553;28;20025;-71
2023/05/18 10:20:59;;;;;;;8.70;2.20;;;15.30;50.60;;;;;;5045468;28;20037;-71
2023/05/18 10:23:26;;;;;;;5.57;1.92;;;15.40;48.70;;;;;;5034519;28;20536;-72
2023/05/18 10:25:53;;;;;;;8.02;1.70;;;14.90;47.90;;;;;;5047829;28;20098;-68
2023/05/18 10:28:27;;;;;;;8.30;1.88;;;14.30;48.80;;;;;;5040788;28;20024;-71
2023/05/18 10:30:54;;;;;;;4.07;1.90;;;14.20;48.60;;;;;;5047187;28;20032;-71
2023/05/18 10:33:26;;;;;;;5.05;1.75;;;14.60;48.00;;;;;;5043123;28;20738;-71
2023/05/18 10:35:52;;;;;;;8.80;2.05;;;15.00;49.20;;;;;;5046966;28;20033;-71
2023/05/18 10:38:23;;;;;;;6.22;2.15;;;15.50;45.80;;;;;;5045558;28;20357;-71
2023/05/18 10:40:51;;;;;;;8.98;1.90;;;15.60;48.30;;;;;;5046592;28;20047;-71
2023/05/18 10:43:26;;;;;;;6.72;1.75;;;15.30;45.60;;;;;;5048953;28;20041;-72
2023/05/18 10:46:00;;;;;;;6.85;1.77;;;15.40;46.80;;;;;;5047902;28;20021;-72
2023/05/18 10:48:27;;;;;;;8.20;1.92;;;15.50;45.70;;;;;;5048447;28;20381;-71
2023/05/18 10:50:55;;;;;;;9.65;2.30;;;15.40;47.60;;;;;;5041047;28;20108;-72
2023/05/18 10:53:25;;;;;;;7.85;1.67;;;15.90;49.00;;;;;;5050936;28;20111;-72
2023/05/18 10:55:51;;;;;;;7.65;2.13;;;16.40;47.90;;;;;;5048488;28;20477;-71
2023/05/18 10:58:19;;;;;;;7.63;2.10;;;16.60;45.60;;;;;;5040822;28;20032;-72
2023/05/18 11:00:51;;;;;;;8.10;2.03;;;16.60;46.10;;;;;;5050156;28;20036;-73
2023/05/18 11:03:18;;;;;;;5.47;1.90;;;16.80;44.70;;;;;;5045277;28;20025;-72
2023/05/18 11:05:49;;;;;;;8.27;1.90;;;16.20;45.70;;;;;;5041899;28;20446;-72
2023/05/18 11:08:25;;;;;;;10.27;2.60;;;16.00;45.50;;;;;;5048264;28;20025;-72
2023/05/18 11:11:06;;;;;;;6.20;1.98;;;16.00;46.40;;;;;;5040086;28;20454;-72
2023/05/18 11:13:32;;;;;;;;;;;16.10;45.20;;;;;;5044809;28;20116;-72
2023/05/18 11:15:58;;;;;;;7.00;2.00;;;15.70;45.70;;;;;;5036868;28;19927;-73
2023/05/18 11:18:42;;;;;;;6.72;1.80;;;16.00;44.80;;;;;;5041557;28;20025;-73
2023/05/18 11:21:23;;;;;;;7.70;2.40;;;17.20;47.10;;;;;;5047294;28;20036;-73
2023/05/18 11:24:16;;;;;;;7.05;2.22;;;16.70;43.50;;;;;;5051352;28;20083;-68
2023/05/18 11:26:53;;;;;;;9.70;2.30;;;17.00;43.90;;;;;;5035484;28;20033;-72
2023/05/18 11:29:22;;;;;;;10.73;2.30;;;16.80;44.50;;;;;;5045121;28;20372;-72
2023/05/18 11:31:50;;;;;;;6.97;1.88;;;17.30;43.80;;;;;;5044266;28;20470;-72
2023/05/18 11:34:35;;;;;;;8.25;1.95;;;17.20;43.50;;;;;;5045753;28;20476;-70
2023/05/18 11:37:01;;;;;;;10.40;2.22;;;17.40;43.70;;;;;;5049796;28;20017;-72
2023/05/18 11:39:26;;;;;;;5.07;1.98;;;17.40;42.10;;;;;;5043652;28;20025;-72
2023/05/18 11:42:00;;;;;;;6.63;1.92;;;17.60;44.10;;;;;;5048619;28;20469;-71
2023/05/18 11:44:27;;;;;;;8.68;1.92;;;17.80;41.80;;;;;;5050683;28;20376;-72
2023/05/18 11:47:04;;;;;;;6.78;2.22;;;18.10;42.50;;;;;;5054269;28;20519;-71
2023/05/18 11:49:32;;;;;;;9.65;1.85;;;18.90;43.20;;;;;;5042549;28;20554;-71
2023/05/18 11:52:18;;;;;;;6.00;2.33;;;18.60;41.60;;;;;;5042762;28;20033;-73
2023/05/18 11:54:52;;;;;;;8.10;1.92;;;18.10;42.70;;;;;;5042052;28;20489;-73
2023/05/18 11:57:39;;;;;;;12.73;2.38;;;19.10;40.40;;;;;;5037285;28;20351;-73
2023/05/18 12:00:06;;;;;;;8.05;1.92;;;18.50;39.50;;;;;;5054217;28;20404;-72
2023/05/18 12:02:33;;;;;;;9.15;2.75;;;19.00;41.70;;;;;;5043370;28;20369;-73
2023/05/18 12:05:01;;;;;;;8.30;2.33;;;18.70;41.70;;;;;;5039026;28;20466;-72
2023/05/18 12:07:28;;;;;;;7.22;2.22;;;19.10;40.30;;;;;;5044406;28;21192;-73
2023/05/18 12:10:01;;;;;;;6.30;1.95;;;18.80;40.00;;;;;;5037123;28;20504;-73
2023/05/18 12:12:27;;;;;;;5.93;1.98;;;19.40;39.90;;;;;;5044302;28;20452;-73
2023/05/18 12:14:57;;;;;;;8.20;2.08;;;18.70;39.50;;;;;;5048082;28;20088;-73
2023/05/18 12:17:36;;;;;;;6.40;1.70;;;19.10;38.70;;;;;;5042703;28;20056;-73
2023/05/18 12:20:02;;;;;;;9.63;2.17;;;19.50;38.60;;;;;;5046069;28;20047;-73
2023/05/18 12:22:28;;;;;;;7.05;2.10;;;20.20;38.00;;;;;;5039788;28;20473;-73
2023/05/18 12:24:53;;;;;;;6.53;2.00;;;20.00;39.70;;;;;;5048357;28;20053;-73
2023/05/18 12:27:21;;;;;;;7.85;2.17;;;19.50;38.50;;;;;;5042108;28;20033;-73
2023/05/18 12:29:47;;;;;;;6.53;1.70;;;20.20;40.90;;;;;;5046491;28;20404;-72
2023/05/18 12:32:13;;;;;;;8.75;1.98;;;19.50;38.80;;;;;;5047890;28;20067;-72
2023/05/18 12:34:39;;;;;;;5.13;1.75;;;19.60;38.10;;;;;;5044809;28;20065;-70
2023/05/18 12:37:06;;;;;;;6.20;2.08;;;19.20;38.30;;;;;;5038709;28;20032;-72
2023/05/18 12:39:32;;;;;;;8.48;5.47;;;19.20;39.20;;;;;;5041430;28;20114;-72
2023/05/18 12:42:14;;;;;;;8.05;3.40;;;19.20;39.70;;;;;;5043308;28;20017;-72
2023/05/18 12:44:42;;;;;;;6.30;2.38;;;19.80;39.20;;;;;;5031869;28;20481;-71
2023/05/18 12:47:10;;;;;;;7.88;2.05;;;20.20;39.00;;;;;;5042643;28;20480;-71
2023/05/18 12:49:41;;;;;;;8.82;1.83;;;20.10;38.10;;;;;;5045162;28;20396;-71
2023/05/18 12:52:12;;;;;;;8.68;1.92;;;20.20;38.60;;;;;;5047960;28;20412;-71
2023/05/18 12:54:58;;;;;;;6.30;1.77;;;19.40;39.50;;;;;;5047469;28;20119;-72